sensor_id;sensor_type;location;lat;lon;timestamp;temperature;humidity
3202;DHT22;34843;48.744;8.958;2023-02-12T00:01:22;4.70;99.90
3202;DHT22;34843;48.744;8.958;2023-02-12T00:03:48;4.80;99.90
3202;DHT22;34843;48.744;8.958;2023-02-12T00:06:14;4.80;99.90
3202;DHT22;34843;48.744;8.958;2023-02-12T00:08:39;4.70;99.90
3202;DHT22;34843;48.744;8.958;2023-02-12T00:11:13;4.70;99.90
3202;DHT22;34843;48.744;8.958;2023-02-12T00:13:39;4.70;99.90
3202;DHT22;34843;48.744;8.958;2023-02-12T00:16:09;4.80;99.90
3202;DHT22;34843;48.744;8.958;2023-02-12T00:18:35;4.80;99.90
3202;DHT22;34843;48.744;8.958;2023-02-12T00:21:01;4.80;99.90
3202;DHT22;34843;48.744;8.958;2023-02-12T00:23:27;4.80;99.90
3202;DHT22;34843;48.744;8.958;2023-02-12T00:25:53;4.80;99.90
3202;DHT22;34843;48.744;8.958;2023-02-12T00:28:18;4.80;99.90
3202;DHT22;34843;48.744;8.958;2023-02-12T00:30:44;4.60;99.90
3202;DHT22;34843;48.744;8.958;2023-02-12T00:33:09;4.50;99.90
3202;DHT22;34843;48.744;8.958;2023-02-12T00:35:35;4.50;99.90
3202;DHT22;34843;48.744;8.958;2023-02-12T00:38:01;4.50;99.90
3202;DHT22;34843;48.744;8.958;2023-02-12T00:40:26;4.40;99.90
3202;DHT22;34843;48.744;8.958;2023-02-12T00:42:52;4.60;99.90
3202;DHT22;34843;48.744;8.958;2023-02-12T00:45:17;4.50;99.90
3202;DHT22;34843;48.744;8.958;2023-02-12T00:47:43;4.50;99.90
3202;DHT22;34843;48.744;8.958;2023-02-12T00:50:09;4.50;99.90
3202;DHT22;34843;48.744;8.958;2023-02-12T00:52:35;4.40;99.90
3202;DHT22;34843;48.744;8.958;2023-02-12T00:55:00;4.50;99.90
3202;DHT22;34843;48.744;8.958;2023-02-12T00:57:26;4.50;99.90
3202;DHT22;34843;48.744;8.958;2023-02-12T00:59:51;4.40;99.90
3202;DHT22;34843;48.744;8.958;2023-02-12T01:02:17;4.40;99.90
3202;DHT22;34843;48.744;8.958;2023-02-12T01:04:43;4.40;99.90
3202;DHT22;34843;48.744;8.958;2023-02-12T01:07:09;4.40;99.90
3202;DHT22;34843;48.744;8.958;2023-02-12T01:09:35;4.30;99.90
3202;DHT22;34843;48.744;8.958;2023-02-12T01:12:00;4.40;99.90
3202;DHT22;34843;48.744;8.958;2023-02-12T01:14:26;4.40;99.90
3202;DHT22;34843;48.744;8.958;2023-02-12T01:16:51;4.40;99.90
3202;DHT22;34843;48.744;8.958;2023-02-12T01:19:17;4.50;99.90
3202;DHT22;34843;48.744;8.958;2023-02-12T01:21:42;4.60;99.90
3202;DHT22;34843;48.744;8.958;2023-02-12T01:24:09;4.70;99.90
3202;DHT22;34843;48.744;8.958;2023-02-12T01:26:34;4.70;99.90
3202;DHT22;34843;48.744;8.958;2023-02-12T01:29:04;4.80;99.90
3202;DHT22;34843;48.744;8.958;2023-02-12T01:31:40;4.80;99.90
3202;DHT22;34843;48.744;8.958;2023-02-12T01:34:07;4.80;99.90
3202;DHT22;34843;48.744;8.958;2023-02-12T01:36:33;4.80;99.90
3202;DHT22;34843;48.744;8.958;2023-02-12T01:39:00;4.80;99.90
3202;DHT22;34843;48.744;8.958;2023-02-12T01:41:29;4.70;99.90
3202;DHT22;34843;48.744;8.958;2023-02-12T01:46:40;4.70;99.90
3202;DHT22;34843;48.744;8.958;2023-02-12T01:49:43;4.70;99.90
3202;DHT22;34843;48.744;8.958;2023-02-12T01:52:14;4.80;99.90
3202;DHT22;34843;48.744;8.958;2023-02-12T01:54:42;4.90;99.90
3202;DHT22;34843;48.744;8.958;2023-02-12T01:57:08;4.90;99.90
3202;DHT22;34843;48.744;8.958;2023-02-12T01:59:37;4.90;99.90
3202;DHT22;34843;48.744;8.958;2023-02-12T02:02:04;5.00;99.90
3202;DHT22;34843;48.744;8.958;2023-02-12T02:04:35;4.90;99.90
3202;DHT22;34843;48.744;8.958;2023-02-12T02:07:04;4.90;99.90
3202;DHT22;34843;48.744;8.958;2023-02-12T02:09:32;4.90;99.90
3202;DHT22;34843;48.744;8.958;2023-02-12T02:11:59;4.90;99.90
3202;DHT22;34843;48.744;8.958;2023-02-12T02:14:44;5.00;99.90
3202;DHT22;34843;48.744;8.958;2023-02-12T02:28:12;4.50;99.90
3202;DHT22;34843;48.744;8.958;2023-02-12T02:30:59;4.60;99.90
3202;DHT22;34843;48.744;8.958;2023-02-12T02:36:34;4.70;99.90
3202;DHT22;34843;48.744;8.958;2023-02-12T02:39:15;4.60;99.90
3202;DHT22;34843;48.744;8.958;2023-02-12T02:44:38;4.80;99.90
3202;DHT22;34843;48.744;8.958;2023-02-12T02:47:10;4.90;99.90
3202;DHT22;34843;48.744;8.958;2023-02-12T02:49:44;4.80;99.90
3202;DHT22;34843;48.744;8.958;2023-02-12T02:52:18;4.70;99.90
3202;DHT22;34843;48.744;8.958;2023-02-12T02:54:48;4.70;99.90
3202;DHT22;34843;48.744;8.958;2023-02-12T02:57:28;4.80;99.90
3202;DHT22;34843;48.744;8.958;2023-02-12T03:00:04;4.70;99.90
3202;DHT22;34843;48.744;8.958;2023-02-12T03:02:37;4.70;99.90
3202;DHT22;34843;48.744;8.958;2023-02-12T03:05:16;4.70;99.90
3202;DHT22;34843;48.744;8.958;2023-02-12T03:07:51;4.80;99.90
3202;DHT22;34843;48.744;8.958;2023-02-12T03:10:26;4.80;99.90
3202;DHT22;34843;48.744;8.958;2023-02-12T03:13:05;4.90;99.90
3202;DHT22;34843;48.744;8.958;2023-02-12T03:15:41;4.80;99.90
3202;DHT22;34843;48.744;8.958;2023-02-12T03:18:21;4.80;99.90
3202;DHT22;34843;48.744;8.958;2023-02-12T03:20:52;5.00;99.90
3202;DHT22;34843;48.744;8.958;2023-02-12T03:23:30;4.90;99.90
3202;DHT22;34843;48.744;8.958;2023-02-12T03:28:34;5.00;99.90
3202;DHT22;34843;48.744;8.958;2023-02-12T03:39:32;4.80;99.90
3202;DHT22;34843;48.744;8.958;2023-02-12T03:50:59;4.50;99.90
3202;DHT22;34843;48.744;8.958;2023-02-12T03:53:28;4.60;99.90
3202;DHT22;34843;48.744;8.958;2023-02-12T03:55:59;4.60;99.90
3202;DHT22;34843;48.744;8.958;2023-02-12T03:58:27;4.60;99.90
3202;DHT22;34843;48.744;8.958;2023-02-12T04:00:54;4.70;99.90
3202;DHT22;34843;48.744;8.958;2023-02-12T04:03:20;4.60;99.90
3202;DHT22;34843;48.744;8.958;2023-02-12T04:05:46;4.50;99.90
3202;DHT22;34843;48.744;8.958;2023-02-12T04:08:12;4.50;99.90
3202;DHT22;34843;48.744;8.958;2023-02-12T04:13:32;4.40;99.90
3202;DHT22;34843;48.744;8.958;2023-02-12T04:16:03;4.30;99.90
3202;DHT22;34843;48.744;8.958;2023-02-12T04:18:41;4.20;99.90
3202;DHT22;34843;48.744;8.958;2023-02-12T04:24:04;4.00;99.90
3202;DHT22;34843;48.744;8.958;2023-02-12T04:27:11;3.90;99.90
3202;DHT22;34843;48.744;8.958;2023-02-12T04:32:31;4.00;99.90
3202;DHT22;34843;48.744;8.958;2023-02-12T04:35:16;4.00;99.90
3202;DHT22;34843;48.744;8.958;2023-02-12T04:40:33;4.00;99.90
3202;DHT22;34843;48.744;8.958;2023-02-12T04:43:00;4.20;99.90
3202;DHT22;34843;48.744;8.958;2023-02-12T04:45:31;4.30;99.90
3202;DHT22;34843;48.744;8.958;2023-02-12T04:47:57;4.30;99.90
3202;DHT22;34843;48.744;8.958;2023-02-12T04:50:23;4.30;99.90
3202;DHT22;34843;48.744;8.958;2023-02-12T04:52:49;4.30;99.90
3202;DHT22;34843;48.744;8.958;2023-02-12T04:55:15;4.40;99.90
3202;DHT22;34843;48.744;8.958;2023-02-12T04:57:40;4.50;99.90
3202;DHT22;34843;48.744;8.958;2023-02-12T05:00:07;4.60;99.90
3202;DHT22;34843;48.744;8.958;2023-02-12T05:02:34;4.60;99.90
3202;DHT22;34843;48.744;8.958;2023-02-12T05:04:59;4.70;99.90
3202;DHT22;34843;48.744;8.958;2023-02-12T05:07:25;4.70;99.90
3202;DHT22;34843;48.744;8.958;2023-02-12T05:09:50;4.80;99.90
3202;DHT22;34843;48.744;8.958;2023-02-12T05:12:16;4.80;99.90
3202;DHT22;34843;48.744;8.958;2023-02-12T05:14:41;4.90;99.90
3202;DHT22;34843;48.744;8.958;2023-02-12T05:17:07;4.90;99.90
3202;DHT22;34843;48.744;8.958;2023-02-12T05:19:32;4.80;99.90
3202;DHT22;34843;48.744;8.958;2023-02-12T05:21:58;4.90;99.90
3202;DHT22;34843;48.744;8.958;2023-02-12T05:24:23;4.90;99.90
3202;DHT22;34843;48.744;8.958;2023-02-12T05:26:49;4.90;99.90
3202;DHT22;34843;48.744;8.958;2023-02-12T05:29:14;4.90;99.90
3202;DHT22;34843;48.744;8.958;2023-02-12T05:31:40;5.00;99.90
3202;DHT22;34843;48.744;8.958;2023-02-12T05:34:10;4.80;99.90
3202;DHT22;34843;48.744;8.958;2023-02-12T05:36:36;4.60;99.90
3202;DHT22;34843;48.744;8.958;2023-02-12T05:39:02;4.50;99.90
3202;DHT22;34843;48.744;8.958;2023-02-12T05:41:28;4.30;99.90
3202;DHT22;34843;48.744;8.958;2023-02-12T05:43:59;4.20;99.90
3202;DHT22;34843;48.744;8.958;2023-02-12T05:46:24;4.10;99.90
3202;DHT22;34843;48.744;8.958;2023-02-12T05:48:49;4.10;99.90
3202;DHT22;34843;48.744;8.958;2023-02-12T05:51:21;4.10;99.90
3202;DHT22;34843;48.744;8.958;2023-02-12T05:53:48;4.00;99.90
3202;DHT22;34843;48.744;8.958;2023-02-12T05:58:42;3.90;99.90
3202;DHT22;34843;48.744;8.958;2023-02-12T06:01:19;3.90;99.90
3202;DHT22;34843;48.744;8.958;2023-02-12T06:03:45;3.80;99.90
3202;DHT22;34843;48.744;8.958;2023-02-12T06:06:11;4.00;99.90
3202;DHT22;34843;48.744;8.958;2023-02-12T06:08:37;3.90;99.90
3202;DHT22;34843;48.744;8.958;2023-02-12T06:11:09;3.90;99.90
3202;DHT22;34843;48.744;8.958;2023-02-12T06:13:35;3.90;99.90
3202;DHT22;34843;48.744;8.958;2023-02-12T06:16:01;3.90;99.90
3202;DHT22;34843;48.744;8.958;2023-02-12T06:18:27;3.90;99.90
3202;DHT22;34843;48.744;8.958;2023-02-12T06:20:52;4.00;99.90
3202;DHT22;34843;48.744;8.958;2023-02-12T06:23:22;4.10;99.90
3202;DHT22;34843;48.744;8.958;2023-02-12T06:25:49;4.10;99.90
3202;DHT22;34843;48.744;8.958;2023-02-12T06:28:15;4.30;99.90
3202;DHT22;34843;48.744;8.958;2023-02-12T06:30:41;4.30;99.90
3202;DHT22;34843;48.744;8.958;2023-02-12T06:33:07;4.30;99.90
3202;DHT22;34843;48.744;8.958;2023-02-12T06:35:34;4.40;99.90
3202;DHT22;34843;48.744;8.958;2023-02-12T06:38:00;4.30;99.90
3202;DHT22;34843;48.744;8.958;2023-02-12T06:40:26;4.30;99.90
3202;DHT22;34843;48.744;8.958;2023-02-12T06:42:51;4.40;99.90
3202;DHT22;34843;48.744;8.958;2023-02-12T06:45:17;4.50;99.90
3202;DHT22;34843;48.744;8.958;2023-02-12T06:47:42;4.50;99.90
3202;DHT22;34843;48.744;8.958;2023-02-12T06:50:08;4.50;99.90
3202;DHT22;34843;48.744;8.958;2023-02-12T06:52:34;4.60;99.90
3202;DHT22;34843;48.744;8.958;2023-02-12T06:54:59;4.60;99.90
3202;DHT22;34843;48.744;8.958;2023-02-12T06:57:25;4.60;99.90
3202;DHT22;34843;48.744;8.958;2023-02-12T06:59:50;4.60;99.90
3202;DHT22;34843;48.744;8.958;2023-02-12T07:02:16;4.60;99.90
3202;DHT22;34843;48.744;8.958;2023-02-12T07:04:41;4.60;99.90
3202;DHT22;34843;48.744;8.958;2023-02-12T07:07:08;4.70;99.90
3202;DHT22;34843;48.744;8.958;2023-02-12T07:09:33;4.80;99.90
3202;DHT22;34843;48.744;8.958;2023-02-12T07:11:59;4.90;99.90
3202;DHT22;34843;48.744;8.958;2023-02-12T07:14:25;4.90;99.90
3202;DHT22;34843;48.744;8.958;2023-02-12T07:16:55;5.00;99.90
3202;DHT22;34843;48.744;8.958;2023-02-12T07:19:21;5.00;99.90
3202;DHT22;34843;48.744;8.958;2023-02-12T07:21:47;4.90;99.90
3202;DHT22;34843;48.744;8.958;2023-02-12T07:24:14;4.90;99.90
3202;DHT22;34843;48.744;8.958;2023-02-12T07:26:40;4.90;99.90
3202;DHT22;34843;48.744;8.958;2023-02-12T07:29:06;4.80;99.90
3202;DHT22;34843;48.744;8.958;2023-02-12T07:31:32;4.80;99.90
3202;DHT22;34843;48.744;8.958;2023-02-12T07:33:58;5.10;99.90
3202;DHT22;34843;48.744;8.958;2023-02-12T07:36:26;5.60;99.90
3202;DHT22;34843;48.744;8.958;2023-02-12T07:38:53;6.20;99.90
3202;DHT22;34843;48.744;8.958;2023-02-12T07:41:21;7.10;99.90
3202;DHT22;34843;48.744;8.958;2023-02-12T07:43:51;6.70;99.90
3202;DHT22;34843;48.744;8.958;2023-02-12T07:46:20;6.80;99.90
3202;DHT22;34843;48.744;8.958;2023-02-12T07:48:46;6.60;99.90
3202;DHT22;34843;48.744;8.958;2023-02-12T07:51:15;6.50;99.90
3202;DHT22;34843;48.744;8.958;2023-02-12T07:53:41;6.40;99.90
3202;DHT22;34843;48.744;8.958;2023-02-12T07:56:18;6.40;99.90
3202;DHT22;34843;48.744;8.958;2023-02-12T07:58:45;6.40;99.90
3202;DHT22;34843;48.744;8.958;2023-02-12T08:03:38;6.40;99.90
3202;DHT22;34843;48.744;8.958;2023-02-12T08:06:12;6.40;99.90
3202;DHT22;34843;48.744;8.958;2023-02-12T08:08:38;6.40;99.90
3202;DHT22;34843;48.744;8.958;2023-02-12T08:11:06;6.50;99.90
3202;DHT22;34843;48.744;8.958;2023-02-12T08:13:32;6.40;99.90
3202;DHT22;34843;48.744;8.958;2023-02-12T08:16:02;6.40;99.90
3202;DHT22;34843;48.744;8.958;2023-02-12T08:18:30;6.40;99.90
3202;DHT22;34843;48.744;8.958;2023-02-12T08:21:10;6.40;99.90
3202;DHT22;34843;48.744;8.958;2023-02-12T08:23:36;6.40;99.90
3202;DHT22;34843;48.744;8.958;2023-02-12T08:28:30;6.40;99.90
3202;DHT22;34843;48.744;8.958;2023-02-12T08:31:04;6.50;99.90
3202;DHT22;34843;48.744;8.958;2023-02-12T08:33:30;6.60;99.90
3202;DHT22;34843;48.744;8.958;2023-02-12T08:36:04;6.70;99.90
3202;DHT22;34843;48.744;8.958;2023-02-12T08:38:31;6.70;99.90
3202;DHT22;34843;48.744;8.958;2023-02-12T08:41:01;6.90;99.90
3202;DHT22;34843;48.744;8.958;2023-02-12T08:43:27;7.10;99.90
3202;DHT22;34843;48.744;8.958;2023-02-12T08:45:52;7.20;99.90
3202;DHT22;34843;48.744;8.958;2023-02-12T08:48:19;7.40;99.90
3202;DHT22;34843;48.744;8.958;2023-02-12T08:50:45;7.40;99.90
3202;DHT22;34843;48.744;8.958;2023-02-12T08:53:11;7.20;99.90
3202;DHT22;34843;48.744;8.958;2023-02-12T08:55:36;7.20;99.90
3202;DHT22;34843;48.744;8.958;2023-02-12T08:58:02;7.20;99.90
3202;DHT22;34843;48.744;8.958;2023-02-12T09:00:31;7.30;99.90
3202;DHT22;34843;48.744;8.958;2023-02-12T09:02:56;7.30;99.90
3202;DHT22;34843;48.744;8.958;2023-02-12T09:05:22;7.50;99.90
3202;DHT22;34843;48.744;8.958;2023-02-12T09:07:47;7.60;99.90
3202;DHT22;34843;48.744;8.958;2023-02-12T09:10:13;7.70;99.90
3202;DHT22;34843;48.744;8.958;2023-02-12T09:12:39;7.80;99.90
3202;DHT22;34843;48.744;8.958;2023-02-12T09:15:05;8.00;99.90
3202;DHT22;34843;48.744;8.958;2023-02-12T09:17:31;8.10;99.90
3202;DHT22;34843;48.744;8.958;2023-02-12T09:19:56;8.20;99.90
3202;DHT22;34843;48.744;8.958;2023-02-12T09:22:22;8.20;99.90
3202;DHT22;34843;48.744;8.958;2023-02-12T09:24:47;8.10;99.90
3202;DHT22;34843;48.744;8.958;2023-02-12T09:27:13;8.00;99.90
3202;DHT22;34843;48.744;8.958;2023-02-12T09:29:38;7.90;99.90
3202;DHT22;34843;48.744;8.958;2023-02-12T09:32:04;7.90;99.90
3202;DHT22;34843;48.744;8.958;2023-02-12T09:34:34;8.00;99.90
3202;DHT22;34843;48.744;8.958;2023-02-12T09:36:59;8.00;99.90
3202;DHT22;34843;48.744;8.958;2023-02-12T09:39:26;7.80;99.90
3202;DHT22;34843;48.744;8.958;2023-02-12T09:47:22;7.50;99.90
3202;DHT22;34843;48.744;8.958;2023-02-12T09:50:11;7.50;99.90
3202;DHT22;34843;48.744;8.958;2023-02-12T09:52:42;7.50;99.90
3202;DHT22;34843;48.744;8.958;2023-02-12T09:55:13;7.50;99.90
3202;DHT22;34843;48.744;8.958;2023-02-12T09:57:40;7.50;99.90
3202;DHT22;34843;48.744;8.958;2023-02-12T10:00:07;7.60;99.90
3202;DHT22;34843;48.744;8.958;2023-02-12T10:02:38;7.40;99.90
3202;DHT22;34843;48.744;8.958;2023-02-12T10:05:08;7.30;99.90
3202;DHT22;34843;48.744;8.958;2023-02-12T10:13:39;7.40;99.90
3202;DHT22;34843;48.744;8.958;2023-02-12T10:21:58;7.50;99.90
3202;DHT22;34843;48.744;8.958;2023-02-12T10:30:38;7.60;99.90
3202;DHT22;34843;48.744;8.958;2023-02-12T10:33:03;7.60;99.90
3202;DHT22;34843;48.744;8.958;2023-02-12T10:35:30;7.50;99.90
3202;DHT22;34843;48.744;8.958;2023-02-12T10:38:21;7.40;99.90
3202;DHT22;34843;48.744;8.958;2023-02-12T10:40:48;7.50;99.90
3202;DHT22;34843;48.744;8.958;2023-02-12T10:43:14;7.60;99.90
3202;DHT22;34843;48.744;8.958;2023-02-12T10:45:42;7.70;99.90
3202;DHT22;34843;48.744;8.958;2023-02-12T10:48:35;7.70;99.90
3202;DHT22;34843;48.744;8.958;2023-02-12T10:53:43;7.70;99.90
3202;DHT22;34843;48.744;8.958;2023-02-12T10:58:41;8.10;99.90
3202;DHT22;34843;48.744;8.958;2023-02-12T11:01:16;8.00;99.90
3202;DHT22;34843;48.744;8.958;2023-02-12T11:03:44;8.00;99.90
3202;DHT22;34843;48.744;8.958;2023-02-12T11:06:30;8.00;99.90
3202;DHT22;34843;48.744;8.958;2023-02-12T11:08:57;7.90;99.90
3202;DHT22;34843;48.744;8.958;2023-02-12T11:11:32;8.00;99.90
3202;DHT22;34843;48.744;8.958;2023-02-12T11:14:13;8.10;99.90
3202;DHT22;34843;48.744;8.958;2023-02-12T11:16:51;8.10;99.90
3202;DHT22;34843;48.744;8.958;2023-02-12T11:19:29;8.10;99.90
3202;DHT22;34843;48.744;8.958;2023-02-12T11:22:07;8.20;99.90
3202;DHT22;34843;48.744;8.958;2023-02-12T11:24:36;8.20;99.90
3202;DHT22;34843;48.744;8.958;2023-02-12T11:29:40;8.30;99.90
3202;DHT22;34843;48.744;8.958;2023-02-12T11:32:08;8.30;99.90
3202;DHT22;34843;48.744;8.958;2023-02-12T11:34:39;8.30;99.90
3202;DHT22;34843;48.744;8.958;2023-02-12T11:37:21;8.20;99.90
3202;DHT22;34843;48.744;8.958;2023-02-12T11:39:48;8.30;99.90
3202;DHT22;34843;48.744;8.958;2023-02-12T11:42:16;8.10;99.90
3202;DHT22;34843;48.744;8.958;2023-02-12T11:44:54;8.00;99.90
3202;DHT22;34843;48.744;8.958;2023-02-12T11:47:27;8.10;99.90
3202;DHT22;34843;48.744;8.958;2023-02-12T11:50:25;8.30;99.90
3202;DHT22;34843;48.744;8.958;2023-02-12T11:52:55;8.20;99.90
3202;DHT22;34843;48.744;8.958;2023-02-12T11:55:30;8.10;99.90
3202;DHT22;34843;48.744;8.958;2023-02-12T11:58:11;8.00;99.90
3202;DHT22;34843;48.744;8.958;2023-02-12T12:00:45;8.20;99.90
3202;DHT22;34843;48.744;8.958;2023-02-12T12:03:22;8.30;99.90
3202;DHT22;34843;48.744;8.958;2023-02-12T12:06:02;8.60;99.90
3202;DHT22;34843;48.744;8.958;2023-02-12T12:08:50;8.90;99.90
3202;DHT22;34843;48.744;8.958;2023-02-12T12:11:24;8.90;99.90
3202;DHT22;34843;48.744;8.958;2023-02-12T12:14:42;8.70;99.90
3202;DHT22;34843;48.744;8.958;2023-02-12T12:20:09;8.80;99.90
3202;DHT22;34843;48.744;8.958;2023-02-12T12:28:35;9.20;99.90
3202;DHT22;34843;48.744;8.958;2023-02-12T12:31:11;9.40;99.90
3202;DHT22;34843;48.744;8.958;2023-02-12T12:33:45;9.40;99.90
3202;DHT22;34843;48.744;8.958;2023-02-12T12:36:40;9.30;99.90
3202;DHT22;34843;48.744;8.958;2023-02-12T12:42:11;9.20;99.90
3202;DHT22;34843;48.744;8.958;2023-02-12T12:54:05;8.90;99.90
3202;DHT22;34843;48.744;8.958;2023-02-12T12:57:02;8.80;99.90
3202;DHT22;34843;48.744;8.958;2023-02-12T13:05:35;8.50;99.90
3202;DHT22;34843;48.744;8.958;2023-02-12T13:08:20;8.50;99.90
3202;DHT22;34843;48.744;8.958;2023-02-12T13:11:11;8.40;99.90
3202;DHT22;34843;48.744;8.958;2023-02-12T13:13:45;8.40;99.90
3202;DHT22;34843;48.744;8.958;2023-02-12T13:16:20;8.40;99.90
3202;DHT22;34843;48.744;8.958;2023-02-12T13:22:05;8.40;99.90
3202;DHT22;34843;48.744;8.958;2023-02-12T13:24:38;8.30;99.90
3202;DHT22;34843;48.744;8.958;2023-02-12T13:27:17;8.30;99.90
3202;DHT22;34843;48.744;8.958;2023-02-12T13:29:51;8.50;99.90
3202;DHT22;34843;48.744;8.958;2023-02-12T13:34:53;8.40;99.90
3202;DHT22;34843;48.744;8.958;2023-02-12T13:37:36;8.40;99.90
3202;DHT22;34843;48.744;8.958;2023-02-12T13:40:06;8.30;99.90
3202;DHT22;34843;48.744;8.958;2023-02-12T13:47:58;8.30;99.90
3202;DHT22;34843;48.744;8.958;2023-02-12T13:50:40;8.30;99.90
3202;DHT22;34843;48.744;8.958;2023-02-12T14:03:33;8.40;99.90
3202;DHT22;34843;48.744;8.958;2023-02-12T14:06:16;8.40;99.90
3202;DHT22;34843;48.744;8.958;2023-02-12T14:08:47;8.40;99.90
3202;DHT22;34843;48.744;8.958;2023-02-12T14:11:16;8.30;99.90
3202;DHT22;34843;48.744;8.958;2023-02-12T14:13:56;8.30;99.90
3202;DHT22;34843;48.744;8.958;2023-02-12T14:22:01;8.30;99.90
3202;DHT22;34843;48.744;8.958;2023-02-12T14:27:04;8.40;99.90
3202;DHT22;34843;48.744;8.958;2023-02-12T14:29:30;8.40;99.90
3202;DHT22;34843;48.744;8.958;2023-02-12T14:31:56;8.40;99.90
3202;DHT22;34843;48.744;8.958;2023-02-12T14:36:47;8.50;99.90
3202;DHT22;34843;48.744;8.958;2023-02-12T14:41:49;8.50;99.90
3202;DHT22;34843;48.744;8.958;2023-02-12T14:46:54;8.40;99.90
3202;DHT22;34843;48.744;8.958;2023-02-12T14:49:25;8.40;99.90
3202;DHT22;34843;48.744;8.958;2023-02-12T14:52:05;8.50;99.90
3202;DHT22;34843;48.744;8.958;2023-02-12T14:54:45;8.50;99.90
3202;DHT22;34843;48.744;8.958;2023-02-12T14:57:34;8.40;99.90
3202;DHT22;34843;48.744;8.958;2023-02-12T15:05:15;8.50;99.90
3202;DHT22;34843;48.744;8.958;2023-02-12T15:07:52;8.50;99.90
3202;DHT22;34843;48.744;8.958;2023-02-12T15:10:41;8.40;99.90
3202;DHT22;34843;48.744;8.958;2023-02-12T15:13:30;8.30;99.90
3202;DHT22;34843;48.744;8.958;2023-02-12T15:18:51;8.30;99.90
3202;DHT22;34843;48.744;8.958;2023-02-12T15:21:30;8.20;99.90
3202;DHT22;34843;48.744;8.958;2023-02-12T15:24:20;8.30;99.90
3202;DHT22;34843;48.744;8.958;2023-02-12T15:26:50;8.30;99.90
3202;DHT22;34843;48.744;8.958;2023-02-12T15:29:28;8.20;99.90
3202;DHT22;34843;48.744;8.958;2023-02-12T15:31:57;8.20;99.90
3202;DHT22;34843;48.744;8.958;2023-02-12T15:34:27;8.20;99.90
3202;DHT22;34843;48.744;8.958;2023-02-12T15:36:57;8.20;99.90
3202;DHT22;34843;48.744;8.958;2023-02-12T15:39:23;8.20;99.90
3202;DHT22;34843;48.744;8.958;2023-02-12T15:41:50;8.20;99.90
3202;DHT22;34843;48.744;8.958;2023-02-12T15:49:33;8.00;99.90
3202;DHT22;34843;48.744;8.958;2023-02-12T15:52:22;8.00;99.90
3202;DHT22;34843;48.744;8.958;2023-02-12T15:54:47;7.90;99.90
3202;DHT22;34843;48.744;8.958;2023-02-12T15:57:20;7.90;99.90
3202;DHT22;34843;48.744;8.958;2023-02-12T15:59:54;7.80;99.90
3202;DHT22;34843;48.744;8.958;2023-02-12T16:02:30;7.80;99.90
3202;DHT22;34843;48.744;8.958;2023-02-12T16:04:58;7.70;99.90
3202;DHT22;34843;48.744;8.958;2023-02-12T16:07:25;7.70;99.90
3202;DHT22;34843;48.744;8.958;2023-02-12T16:09:53;7.70;99.90
3202;DHT22;34843;48.744;8.958;2023-02-12T16:12:21;7.60;99.90
3202;DHT22;34843;48.744;8.958;2023-02-12T16:14:55;7.60;99.90
3202;DHT22;34843;48.744;8.958;2023-02-12T16:19:58;7.50;99.90
3202;DHT22;34843;48.744;8.958;2023-02-12T16:22:29;7.40;99.90
3202;DHT22;34843;48.744;8.958;2023-02-12T16:24:55;7.40;99.90
3202;DHT22;34843;48.744;8.958;2023-02-12T16:27:27;7.30;99.90
3202;DHT22;34843;48.744;8.958;2023-02-12T16:30:00;7.20;99.90
3202;DHT22;34843;48.744;8.958;2023-02-12T16:32:34;7.20;99.90
3202;DHT22;34843;48.744;8.958;2023-02-12T16:35:17;7.10;99.90
3202;DHT22;34843;48.744;8.958;2023-02-12T16:37:52;7.00;99.90
3202;DHT22;34843;48.744;8.958;2023-02-12T16:40:24;7.00;99.90
3202;DHT22;34843;48.744;8.958;2023-02-12T16:48:33;6.70;99.90
3202;DHT22;34843;48.744;8.958;2023-02-12T16:50:53;6.60;99.90
3202;DHT22;34843;48.744;8.958;2023-02-12T16:53:23;6.50;99.90
3202;DHT22;34843;48.744;8.958;2023-02-12T16:55:50;6.40;99.90
3202;DHT22;34843;48.744;8.958;2023-02-12T16:58:15;6.30;99.90
3202;DHT22;34843;48.744;8.958;2023-02-12T17:00:41;6.10;99.90
3202;DHT22;34843;48.744;8.958;2023-02-12T17:03:11;6.00;99.90
3202;DHT22;34843;48.744;8.958;2023-02-12T17:05:37;5.80;99.90
3202;DHT22;34843;48.744;8.958;2023-02-12T17:08:02;5.70;99.90
3202;DHT22;34843;48.744;8.958;2023-02-12T17:10:28;5.60;99.90
3202;DHT22;34843;48.744;8.958;2023-02-12T17:12:53;5.40;99.90
3202;DHT22;34843;48.744;8.958;2023-02-12T17:15:23;5.30;99.90
3202;DHT22;34843;48.744;8.958;2023-02-12T17:17:50;5.20;99.90
3202;DHT22;34843;48.744;8.958;2023-02-12T17:20:15;5.10;99.90
3202;DHT22;34843;48.744;8.958;2023-02-12T17:22:52;5.00;99.90
3202;DHT22;34843;48.744;8.958;2023-02-12T17:25:18;4.90;99.90
3202;DHT22;34843;48.744;8.958;2023-02-12T17:27:44;4.80;99.90
3202;DHT22;34843;48.744;8.958;2023-02-12T17:30:14;4.80;99.90
3202;DHT22;34843;48.744;8.958;2023-02-12T17:32:41;4.70;99.90
3202;DHT22;34843;48.744;8.958;2023-02-12T17:35:07;4.60;99.90
3202;DHT22;34843;48.744;8.958;2023-02-12T17:37:32;4.40;99.90
3202;DHT22;34843;48.744;8.958;2023-02-12T17:39:58;4.30;99.90
3202;DHT22;34843;48.744;8.958;2023-02-12T17:42:23;4.30;99.90
3202;DHT22;34843;48.744;8.958;2023-02-12T17:44:49;4.30;99.90
3202;DHT22;34843;48.744;8.958;2023-02-12T17:47:14;4.10;99.90
3202;DHT22;34843;48.744;8.958;2023-02-12T17:49:40;4.10;99.90
3202;DHT22;34843;48.744;8.958;2023-02-12T17:52:06;3.90;99.90
3202;DHT22;34843;48.744;8.958;2023-02-12T17:54:32;4.50;99.90
3202;DHT22;34843;48.744;8.958;2023-02-12T17:56:57;3.70;99.90
3202;DHT22;34843;48.744;8.958;2023-02-12T17:59:23;3.60;99.90
3202;DHT22;34843;48.744;8.958;2023-02-12T18:01:48;3.50;99.90
3202;DHT22;34843;48.744;8.958;2023-02-12T18:04:14;3.40;99.90
3202;DHT22;34843;48.744;8.958;2023-02-12T18:06:39;3.40;99.90
3202;DHT22;34843;48.744;8.958;2023-02-12T18:09:05;3.30;99.90
3202;DHT22;34843;48.744;8.958;2023-02-12T18:11:30;3.20;99.90
3202;DHT22;34843;48.744;8.958;2023-02-12T18:13:57;3.10;99.90
3202;DHT22;34843;48.744;8.958;2023-02-12T18:16:25;2.90;99.90
3202;DHT22;34843;48.744;8.958;2023-02-12T18:18:51;2.80;99.90
3202;DHT22;34843;48.744;8.958;2023-02-12T18:21:17;2.70;99.90
3202;DHT22;34843;48.744;8.958;2023-02-12T18:23:43;2.70;99.90
3202;DHT22;34843;48.744;8.958;2023-02-12T18:26:12;2.50;99.90
3202;DHT22;34843;48.744;8.958;2023-02-12T18:28:38;2.40;99.90
3202;DHT22;34843;48.744;8.958;2023-02-12T18:31:04;2.40;99.90
3202;DHT22;34843;48.744;8.958;2023-02-12T18:33:31;2.30;99.90
3202;DHT22;34843;48.744;8.958;2023-02-12T18:36:02;2.30;99.90
3202;DHT22;34843;48.744;8.958;2023-02-12T18:38:28;2.30;99.90
3202;DHT22;34843;48.744;8.958;2023-02-12T18:40:54;2.30;99.90
3202;DHT22;34843;48.744;8.958;2023-02-12T18:43:20;2.20;99.90
3202;DHT22;34843;48.744;8.958;2023-02-12T18:45:46;2.20;99.90
3202;DHT22;34843;48.744;8.958;2023-02-12T18:48:11;2.20;99.90
3202;DHT22;34843;48.744;8.958;2023-02-12T18:50:37;2.10;99.90
3202;DHT22;34843;48.744;8.958;2023-02-12T18:53:03;2.10;99.90
3202;DHT22;34843;48.744;8.958;2023-02-12T18:55:29;2.10;99.90
3202;DHT22;34843;48.744;8.958;2023-02-12T18:57:54;2.00;99.90
3202;DHT22;34843;48.744;8.958;2023-02-12T19:00:20;1.90;99.90
3202;DHT22;34843;48.744;8.958;2023-02-12T19:02:46;1.80;99.90
3202;DHT22;34843;48.744;8.958;2023-02-12T19:05:11;1.70;99.90
3202;DHT22;34843;48.744;8.958;2023-02-12T19:07:37;1.70;99.90
3202;DHT22;34843;48.744;8.958;2023-02-12T19:10:03;1.70;99.90
3202;DHT22;34843;48.744;8.958;2023-02-12T19:12:29;1.60;99.90
3202;DHT22;34843;48.744;8.958;2023-02-12T19:14:55;1.60;99.90